createdAt,value
2018-06-09T00:00:58.925Z,78.80
2018-06-09T00:03:27.786Z,78.20
2018-06-09T00:08:25.187Z,77.00
2018-06-09T00:10:54.031Z,77.40
2018-06-09T00:13:22.940Z,77.90
2018-06-09T00:18:20.447Z,77.60
2018-06-09T00:20:49.377Z,77.40
2018-06-09T00:23:18.222Z,77.60
2018-06-09T00:25:47.108Z,78.40
2018-06-09T00:28:15.990Z,80.00
2018-06-09T00:30:44.824Z,80.50
2018-06-09T00:33:13.747Z,80.40
2018-06-09T00:38:11.108Z,81.30
2018-06-09T00:40:40.116Z,82.20
2018-06-09T00:45:37.473Z,81.40
2018-06-09T00:48:06.399Z,80.50
2018-06-09T00:50:35.456Z,80.10
2018-06-09T00:53:04.319Z,80.00
2018-06-09T00:55:33.195Z,80.00
2018-06-09T00:58:02.148Z,80.70
2018-06-09T01:00:31.010Z,80.50
2018-06-09T01:02:59.865Z,80.30
2018-06-09T01:05:28.827Z,81.10
2018-06-09T01:07:57.971Z,81.60
2018-06-09T01:10:26.860Z,83.10
2018-06-09T01:12:55.777Z,82.90
2018-06-09T01:15:24.705Z,83.80
2018-06-09T01:17:53.648Z,83.70
2018-06-09T01:20:23.224Z,83.60
2018-06-09T01:22:52.171Z,84.20
2018-06-09T01:25:21.121Z,83.60
2018-06-09T01:27:50.047Z,83.50
2018-06-09T01:32:47.647Z,83.10
2018-06-09T01:35:16.590Z,83.70
2018-06-09T01:37:45.540Z,82.50
2018-06-09T01:40:14.496Z,83.10
2018-06-09T01:45:11.959Z,82.80
2018-06-09T01:47:40.956Z,82.60
2018-06-09T01:52:39.021Z,82.60
2018-06-09T01:55:07.882Z,83.80
2018-06-09T01:57:36.783Z,83.00
2018-06-09T02:00:06.161Z,83.00
2018-06-09T02:02:34.992Z,83.00
2018-06-09T02:05:04.065Z,82.90
2018-06-09T02:07:33.081Z,82.40
2018-06-09T02:10:02.531Z,82.50
2018-06-09T02:12:31.463Z,82.00
2018-06-09T02:15:00.373Z,82.20
2018-06-09T02:17:29.196Z,82.10
2018-06-09T02:19:58.147Z,81.80
2018-06-09T02:22:26.984Z,81.90
2018-06-09T02:24:55.891Z,82.10
2018-06-09T02:27:24.800Z,82.00
2018-06-09T02:29:53.804Z,82.40
2018-06-09T02:32:22.692Z,82.30
2018-06-09T02:34:51.626Z,82.50
2018-06-09T02:37:21.528Z,82.70
2018-06-09T02:39:50.364Z,82.90
2018-06-09T02:42:19.317Z,83.20
2018-06-09T02:44:48.211Z,83.70
2018-06-09T02:47:17.192Z,83.10
2018-06-09T02:49:46.091Z,83.00
2018-06-09T02:52:14.997Z,83.80
2018-06-09T02:54:48.040Z,84.20
2018-06-09T02:57:16.922Z,84.70
2018-06-09T02:59:45.853Z,85.40
2018-06-09T03:02:14.705Z,85.20
2018-06-09T03:04:43.584Z,85.40
2018-06-09T03:07:12.445Z,85.50
2018-06-09T03:09:41.375Z,85.80
2018-06-09T03:12:10.303Z,86.10
2018-06-09T03:14:39.169Z,86.10
2018-06-09T03:19:36.739Z,84.20
2018-06-09T03:27:02.588Z,83.40
2018-06-09T03:29:31.438Z,83.40
2018-06-09T03:32:00.314Z,83.40
2018-06-09T03:34:29.186Z,84.10
2018-06-09T03:36:58.106Z,84.00
2018-06-09T03:39:26.950Z,84.20
2018-06-09T03:41:55.791Z,84.30
2018-06-09T03:44:24.707Z,84.60
2018-06-09T03:46:53.578Z,84.10
2018-06-09T03:49:22.405Z,84.00
2018-06-09T03:54:19.717Z,84.80
2018-06-09T03:56:48.685Z,84.30
2018-06-09T03:59:17.565Z,84.40
2018-06-09T04:01:46.482Z,83.80
2018-06-09T04:04:15.352Z,84.20
2018-06-09T04:06:44.237Z,83.90
2018-06-09T04:09:13.189Z,83.70
2018-06-09T04:11:42.086Z,83.50
2018-06-09T04:14:10.985Z,84.70
2018-06-09T04:19:08.287Z,83.80
2018-06-09T04:21:37.270Z,84.00
2018-06-09T04:24:06.218Z,84.00
2018-06-09T04:26:35.350Z,83.90
2018-06-09T04:29:04.245Z,83.90
2018-06-09T04:31:33.181Z,84.50
2018-06-09T04:34:02.113Z,84.20
2018-06-09T04:36:30.979Z,84.50
2018-06-09T04:38:59.810Z,85.00
2018-06-09T04:41:28.781Z,85.10
2018-06-09T04:43:57.667Z,85.20
2018-06-09T04:48:54.899Z,85.40
2018-06-09T04:51:23.745Z,85.40
2018-06-09T04:53:52.642Z,85.60
2018-06-09T04:56:21.517Z,85.90
2018-06-09T04:58:50.404Z,85.50
2018-06-09T05:01:19.358Z,86.10
2018-06-09T05:03:48.248Z,86.20
2018-06-09T05:06:17.133Z,86.50
2018-06-09T05:08:46.095Z,86.70
2018-06-09T05:11:14.953Z,86.80
2018-06-09T05:16:12.436Z,85.60
2018-06-09T05:18:41.302Z,85.50
2018-06-09T05:21:10.170Z,85.40
2018-06-09T05:23:39.031Z,85.10
2018-06-09T05:26:07.897Z,85.20
2018-06-09T05:28:36.780Z,85.50
2018-06-09T05:31:05.917Z,85.30
2018-06-09T05:33:34.792Z,85.30
2018-06-09T05:36:03.669Z,85.00
2018-06-09T05:38:32.609Z,84.70
2018-06-09T05:41:01.574Z,85.00
2018-06-09T05:43:30.554Z,85.20
2018-06-09T05:45:59.442Z,84.80
2018-06-09T05:48:28.349Z,84.90
2018-06-09T05:50:57.296Z,84.80
2018-06-09T05:53:26.132Z,85.00
2018-06-09T05:55:55.038Z,85.20
2018-06-09T06:00:52.350Z,85.10
2018-06-09T06:03:21.206Z,85.60
2018-06-09T06:05:50.041Z,86.00
2018-06-09T06:08:18.879Z,85.80
2018-06-09T06:10:47.804Z,85.70
2018-06-09T06:13:16.680Z,86.10
2018-06-09T06:18:14.122Z,84.90
2018-06-09T06:20:43.026Z,84.30
2018-06-09T06:23:11.899Z,84.90
2018-06-09T06:25:40.790Z,85.40
2018-06-09T06:28:09.747Z,85.10
2018-06-09T06:30:38.661Z,84.40
2018-06-09T06:33:07.525Z,84.40
2018-06-09T06:35:36.397Z,84.50
2018-06-09T06:38:05.260Z,84.50
2018-06-09T06:40:34.277Z,84.70
2018-06-09T06:43:03.166Z,84.50
2018-06-09T06:45:32.125Z,84.90
2018-06-09T06:48:01.071Z,84.50
2018-06-09T06:50:30.239Z,84.00
2018-06-09T06:55:27.567Z,83.60
2018-06-09T06:57:56.461Z,83.40
2018-06-09T07:00:25.342Z,82.90
2018-06-09T07:02:54.220Z,82.10
2018-06-09T07:05:23.157Z,82.10
2018-06-09T07:07:52.114Z,82.60
2018-06-09T07:10:20.977Z,82.00
2018-06-09T07:12:49.850Z,81.90
2018-06-09T07:15:18.785Z,81.70
2018-06-09T07:17:47.794Z,81.50
2018-06-09T07:20:16.813Z,81.00
2018-06-09T07:25:14.269Z,81.00
2018-06-09T07:27:43.200Z,82.00
2018-06-09T07:30:12.120Z,80.40
2018-06-09T07:32:40.996Z,81.20
2018-06-09T07:35:10.077Z,81.00
2018-06-09T07:37:39.126Z,80.60
2018-06-09T07:40:08.209Z,79.40
2018-06-09T07:42:37.183Z,79.20
2018-06-09T07:45:06.129Z,78.50
2018-06-09T07:52:33.047Z,77.60
2018-06-09T07:55:01.931Z,77.10
2018-06-09T07:57:30.896Z,77.70
2018-06-09T07:59:59.813Z,77.50
2018-06-09T08:02:28.885Z,78.10
2018-06-09T08:04:57.787Z,77.30
2018-06-09T08:07:26.740Z,77.50
2018-06-09T08:12:24.208Z,77.40
2018-06-09T08:14:53.180Z,77.50
2018-06-09T08:17:22.482Z,78.60
2018-06-09T08:19:51.345Z,76.60
2018-06-09T08:22:20.249Z,77.30
2018-06-09T08:24:49.225Z,76.30
2018-06-09T08:27:18.445Z,76.40
2018-06-09T08:29:47.364Z,76.70
2018-06-09T08:34:44.792Z,76.10
2018-06-09T08:37:13.797Z,75.20
2018-06-09T08:39:42.774Z,75.60
2018-06-09T08:42:11.642Z,74.80
2018-06-09T08:44:40.566Z,74.90
2018-06-09T08:49:37.959Z,74.50
2018-06-09T08:52:07.557Z,74.00
2018-06-09T08:54:36.753Z,74.50
2018-06-09T08:59:34.221Z,71.90
2018-06-09T09:02:03.341Z,71.60
2018-06-09T09:09:29.558Z,71.70
2018-06-09T09:11:58.593Z,70.00
2018-06-09T09:16:56.062Z,71.10
2018-06-09T09:19:25.049Z,71.70
2018-06-09T09:21:53.887Z,70.30
2018-06-09T09:24:22.779Z,71.00
2018-06-09T09:26:58.277Z,71.90
2018-06-09T09:29:27.162Z,71.00
2018-06-09T09:31:56.196Z,70.10
2018-06-09T09:34:25.096Z,70.40
2018-06-09T09:36:53.918Z,70.40
2018-06-09T09:39:22.794Z,70.00
2018-06-09T09:41:51.676Z,69.70
2018-06-09T09:44:20.605Z,69.70
2018-06-09T09:49:17.988Z,69.10
2018-06-09T09:54:15.344Z,69.10
2018-06-09T09:56:44.250Z,70.60
2018-06-09T10:01:41.531Z,68.60
2018-06-09T10:04:10.493Z,68.00
2018-06-09T10:06:39.517Z,69.10
2018-06-09T10:09:09.009Z,69.30
2018-06-09T10:11:37.907Z,67.80
2018-06-09T10:14:06.784Z,68.30
2018-06-09T10:16:35.739Z,68.10
2018-06-09T10:19:04.782Z,65.80
2018-06-09T10:21:33.696Z,66.40
2018-06-09T10:24:02.603Z,65.90
2018-06-09T10:26:31.506Z,64.50
2018-06-09T10:29:00.410Z,63.60
2018-06-09T10:31:29.301Z,63.00
2018-06-09T10:33:58.255Z,63.60
2018-06-09T10:36:27.228Z,64.00
2018-06-09T10:38:56.157Z,63.70
2018-06-09T10:41:25.051Z,63.70
2018-06-09T10:43:54.000Z,62.70
2018-06-09T10:46:22.941Z,64.60
2018-06-09T10:48:51.971Z,64.10
2018-06-09T10:51:20.899Z,65.50
2018-06-09T10:53:49.805Z,65.70
2018-06-09T10:56:18.740Z,63.50
2018-06-09T10:58:47.616Z,65.00
2018-06-09T11:03:45.058Z,62.50
2018-06-09T11:06:13.942Z,60.70
2018-06-09T11:08:42.832Z,61.70
2018-06-09T11:11:11.685Z,61.80
2018-06-09T11:13:40.567Z,61.50
2018-06-09T11:16:09.434Z,60.50
2018-06-09T11:21:06.873Z,61.10
2018-06-09T11:23:35.733Z,61.10
2018-06-09T11:26:04.709Z,61.10
2018-06-09T11:28:33.718Z,60.10
2018-06-09T11:31:02.640Z,60.70
2018-06-09T11:33:31.617Z,60.50
2018-06-09T11:36:00.544Z,63.40
2018-06-09T11:38:29.481Z,62.10
2018-06-09T11:40:58.419Z,59.90
2018-06-09T11:43:27.296Z,58.20
2018-06-09T11:45:56.334Z,57.00
2018-06-09T11:48:25.170Z,58.80
2018-06-09T11:50:54.384Z,59.20
2018-06-09T11:53:23.245Z,59.70
2018-06-09T11:55:52.164Z,58.50
2018-06-09T11:58:21.035Z,59.40
2018-06-09T12:00:49.943Z,58.30
2018-06-09T12:03:18.772Z,58.50
2018-06-09T12:05:47.633Z,57.60
2018-06-09T12:08:16.557Z,58.00
2018-06-09T12:10:45.456Z,59.00
2018-06-09T12:13:14.364Z,55.90
2018-06-09T12:15:43.365Z,56.30
2018-06-09T12:18:12.210Z,55.10
2018-06-09T12:20:41.145Z,55.90
2018-06-09T12:23:10.132Z,53.40
2018-06-09T12:25:39.140Z,53.70
2018-06-09T12:28:08.619Z,54.80
2018-06-09T12:30:37.601Z,54.00
2018-06-09T12:33:06.539Z,55.40
2018-06-09T12:35:35.490Z,51.70
2018-06-09T12:38:04.453Z,52.20
2018-06-09T12:40:33.351Z,52.40
2018-06-09T12:43:02.312Z,52.70
2018-06-09T12:45:31.346Z,51.90
2018-06-09T12:48:00.193Z,49.80
2018-06-09T12:50:29.121Z,52.80
2018-06-09T12:52:58.010Z,52.80
2018-06-09T12:55:27.028Z,51.90
2018-06-09T12:57:55.914Z,50.50
2018-06-09T13:00:24.775Z,51.30
2018-06-09T13:02:53.659Z,51.60
2018-06-09T13:05:22.521Z,51.00
2018-06-09T13:10:19.911Z,50.90
2018-06-09T13:15:17.236Z,51.10
2018-06-09T13:17:46.131Z,49.30
2018-06-09T13:20:15.033Z,49.00
2018-06-09T13:22:43.944Z,49.10
2018-06-09T13:27:41.306Z,49.00
2018-06-09T13:30:10.165Z,48.10
2018-06-09T13:32:39.021Z,47.80
2018-06-09T13:35:08.005Z,46.30
2018-06-09T13:37:36.881Z,47.10
2018-06-09T13:42:34.244Z,43.80
2018-06-09T13:45:03.183Z,46.00
2018-06-09T13:47:32.128Z,45.90
2018-06-09T13:50:01.133Z,45.20
2018-06-09T13:52:29.994Z,44.40
2018-06-09T13:54:58.866Z,44.30
2018-06-09T13:57:27.802Z,46.30
2018-06-09T13:59:56.785Z,45.00
2018-06-09T14:02:25.765Z,46.10
2018-06-09T14:04:54.637Z,45.40
2018-06-09T14:07:23.532Z,47.30
2018-06-09T14:09:52.499Z,45.30
2018-06-09T14:12:21.403Z,44.20
2018-06-09T14:14:50.319Z,44.90
2018-06-09T14:17:19.221Z,44.80
2018-06-09T14:22:16.617Z,46.30
2018-06-09T14:24:45.528Z,45.30
2018-06-09T14:27:14.427Z,45.40
2018-06-09T14:29:43.366Z,46.10
2018-06-09T14:32:13.117Z,45.50
2018-06-09T14:34:41.973Z,42.90
2018-06-09T14:37:10.937Z,42.90
2018-06-09T14:39:39.880Z,43.00
2018-06-09T14:42:08.809Z,42.90
2018-06-09T14:44:37.744Z,44.20
2018-06-09T14:47:06.647Z,43.20
2018-06-09T14:49:36.965Z,43.50
2018-06-09T14:52:05.953Z,43.10
2018-06-09T14:54:34.962Z,42.40
2018-06-09T14:57:03.871Z,43.10
2018-06-09T14:59:32.838Z,45.30
2018-06-09T15:02:02.537Z,44.10
2018-06-09T15:04:31.500Z,44.90
2018-06-09T15:09:29.032Z,46.50
2018-06-09T15:11:58.053Z,45.80
2018-06-09T15:14:27.150Z,46.30
2018-06-09T15:16:56.026Z,46.10
2018-06-09T15:19:25.169Z,44.90
2018-06-09T15:21:54.049Z,45.90
2018-06-09T15:24:22.925Z,45.20
2018-06-09T15:29:20.452Z,47.20
2018-06-09T15:31:49.677Z,46.00
2018-06-09T15:34:18.559Z,45.70
2018-06-09T15:36:47.464Z,46.30
2018-06-09T15:39:16.382Z,46.50
2018-06-09T15:44:13.810Z,49.20
2018-06-09T15:46:42.711Z,50.90
2018-06-09T15:49:11.656Z,51.30
2018-06-09T15:51:40.654Z,51.60
2018-06-09T15:54:09.508Z,50.90
2018-06-09T15:59:07.216Z,50.90
2018-06-09T16:01:36.040Z,50.60
2018-06-09T16:04:05.955Z,50.20
2018-06-09T16:06:34.814Z,50.20
2018-06-09T16:09:04.145Z,50.30
2018-06-09T16:11:32.967Z,50.60
2018-06-09T16:16:30.285Z,50.70
2018-06-09T16:18:59.230Z,51.40
2018-06-09T16:23:56.605Z,52.20
2018-06-09T16:26:25.473Z,53.00
2018-06-09T16:28:54.368Z,53.20
2018-06-09T16:33:52.006Z,55.00
2018-06-09T16:36:20.956Z,55.90
2018-06-09T16:38:49.997Z,56.40
2018-06-09T16:41:18.978Z,56.70
2018-06-09T16:43:47.945Z,56.70
2018-06-09T16:46:16.805Z,57.10
2018-06-09T16:48:45.812Z,57.30
2018-06-09T16:51:14.723Z,57.60
2018-06-09T16:53:44.050Z,58.30
2018-06-09T16:56:12.972Z,58.60
2018-06-09T16:58:41.902Z,59.20
2018-06-09T17:01:11.629Z,59.60
2018-06-09T17:03:40.491Z,60.00
2018-06-09T17:06:09.426Z,60.00
2018-06-09T17:08:38.378Z,59.70
2018-06-09T17:11:07.426Z,59.80
2018-06-09T17:13:36.326Z,59.80
2018-06-09T17:16:05.482Z,59.90
2018-06-09T17:18:34.397Z,60.00
2018-06-09T17:21:03.332Z,60.10
2018-06-09T17:23:32.520Z,59.80
2018-06-09T17:26:01.386Z,59.90
2018-06-09T17:28:30.252Z,59.90
2018-06-09T17:30:59.168Z,58.70
2018-06-09T17:33:28.080Z,59.00
2018-06-09T17:43:23.013Z,63.50
2018-06-09T17:48:20.448Z,63.50
2018-06-09T17:50:49.379Z,62.00
2018-06-09T17:55:46.792Z,60.40
2018-06-09T17:58:15.650Z,59.50
2018-06-09T18:03:13.178Z,59.40
2018-06-09T18:05:42.118Z,61.30
2018-06-09T18:10:39.581Z,61.20
2018-06-09T18:18:05.430Z,62.60
2018-06-09T18:23:02.821Z,62.80
2018-06-09T18:25:31.813Z,62.80
2018-06-09T18:28:00.731Z,62.90
2018-06-09T18:30:29.672Z,63.00
2018-06-09T18:35:27.153Z,63.00
2018-06-09T18:40:24.512Z,63.40
2018-06-09T18:42:53.445Z,63.80
2018-06-09T18:45:22.446Z,64.10
2018-06-09T18:47:51.265Z,64.60
2018-06-09T18:50:20.137Z,64.70
2018-06-09T18:52:49.031Z,64.70
2018-06-09T18:55:17.938Z,64.70
2018-06-09T18:57:46.844Z,64.90
2018-06-09T19:02:45.224Z,65.50
2018-06-09T19:05:14.140Z,65.70
2018-06-09T19:07:43.051Z,66.10
2018-06-09T19:10:11.976Z,66.10
2018-06-09T19:12:40.890Z,66.30
2018-06-09T19:15:09.966Z,66.60
2018-06-09T19:17:38.846Z,66.60
2018-06-09T19:20:07.713Z,66.50
2018-06-09T19:22:36.617Z,66.50
2018-06-09T19:25:06.064Z,66.60
2018-06-09T19:27:34.953Z,66.30
2018-06-09T19:30:03.809Z,65.80
2018-06-09T19:32:32.643Z,65.80
2018-06-09T19:37:29.908Z,65.30
2018-06-09T19:42:28.651Z,65.40
2018-06-09T19:44:57.602Z,65.60
2018-06-09T19:47:27.949Z,65.90
2018-06-09T19:49:56.956Z,65.90
2018-06-09T19:52:25.837Z,66.40
2018-06-09T19:54:54.712Z,66.40
2018-06-09T19:57:23.778Z,66.80
2018-06-09T19:59:52.946Z,67.20
2018-06-09T20:02:21.866Z,67.50
2018-06-09T20:04:50.714Z,67.30
2018-06-09T20:07:19.704Z,67.70
2018-06-09T20:09:48.615Z,67.50
2018-06-09T20:12:17.565Z,68.00
2018-06-09T20:14:46.474Z,68.10
2018-06-09T20:17:15.375Z,68.00
2018-06-09T20:19:44.255Z,69.60
2018-06-09T20:22:13.157Z,70.30
2018-06-09T20:24:42.056Z,70.60
2018-06-09T20:27:10.928Z,70.70
2018-06-09T20:29:39.851Z,70.60
2018-06-09T20:32:08.781Z,70.90
2018-06-09T20:34:37.720Z,71.10
2018-06-09T20:37:06.766Z,71.00
2018-06-09T20:39:35.770Z,71.20
2018-06-09T20:42:04.827Z,70.20
2018-06-09T20:47:02.255Z,71.30
2018-06-09T20:49:31.266Z,70.60
2018-06-09T20:52:00.196Z,70.70
2018-06-09T20:54:29.162Z,71.00
2018-06-09T20:56:58.044Z,71.20
2018-06-09T20:59:26.908Z,71.40
2018-06-09T21:01:55.761Z,71.60
2018-06-09T21:04:24.717Z,71.10
2018-06-09T21:06:53.750Z,71.30
2018-06-09T21:09:22.637Z,71.30
2018-06-09T21:11:51.585Z,71.70
2018-06-09T21:14:20.480Z,72.40
2018-06-09T21:16:49.375Z,71.80
2018-06-09T21:19:18.643Z,71.80
2018-06-09T21:21:47.647Z,72.50
2018-06-09T21:24:16.523Z,72.10
2018-06-09T21:26:50.797Z,72.00
2018-06-09T21:31:53.604Z,72.80
2018-06-09T21:34:36.029Z,72.30
2018-06-09T21:37:10.176Z,71.70
2018-06-09T21:39:44.184Z,71.90
2018-06-09T21:42:18.425Z,72.40
2018-06-09T21:44:48.799Z,73.00
2018-06-09T21:47:17.740Z,73.00
2018-06-09T21:49:46.696Z,73.50
2018-06-09T21:52:15.579Z,73.90
2018-06-09T21:54:44.445Z,74.00
2018-06-09T21:57:13.333Z,73.60
2018-06-09T21:59:42.243Z,73.90
2018-06-09T22:02:11.177Z,73.40
2018-06-09T22:04:40.282Z,73.00
2018-06-09T22:07:09.178Z,73.20
2018-06-09T22:12:06.510Z,72.90
2018-06-09T22:14:35.472Z,73.40
2018-06-09T22:17:04.568Z,73.10
2018-06-09T22:19:33.436Z,73.80
2018-06-09T22:22:02.455Z,74.00
2018-06-09T22:24:31.346Z,74.50
2018-06-09T22:27:00.245Z,74.50
2018-06-09T22:29:29.157Z,74.70
2018-06-09T22:31:58.079Z,75.10
2018-06-09T22:36:55.542Z,75.00
2018-06-09T22:39:24.461Z,75.20
2018-06-09T22:41:53.477Z,75.20
2018-06-09T22:44:22.381Z,75.10
2018-06-09T22:46:51.276Z,75.50
2018-06-09T22:49:20.154Z,75.60
2018-06-09T22:51:49.184Z,75.60
2018-06-09T22:54:18.073Z,75.80
2018-06-09T22:56:46.949Z,76.40
2018-06-09T22:59:15.926Z,75.70
2018-06-09T23:01:44.745Z,76.30
2018-06-09T23:04:13.780Z,76.20
2018-06-09T23:06:42.732Z,76.30
2018-06-09T23:11:40.166Z,76.30
2018-06-09T23:14:09.063Z,76.10
2018-06-09T23:16:37.917Z,76.30
2018-06-09T23:19:06.893Z,76.50
2018-06-09T23:21:35.818Z,76.70
2018-06-09T23:24:04.819Z,76.70
2018-06-09T23:26:33.727Z,76.50
2018-06-09T23:29:02.945Z,77.20
2018-06-09T23:31:31.901Z,76.90
2018-06-09T23:34:00.779Z,77.40
2018-06-09T23:36:29.735Z,77.60
2018-06-09T23:38:58.575Z,77.90
2018-06-09T23:41:27.509Z,77.90
2018-06-09T23:48:53.477Z,77.90
2018-06-09T23:51:22.418Z,77.70
2018-06-09T23:53:51.354Z,77.90
2018-06-09T23:56:20.357Z,77.80
2018-06-09T23:58:49.313Z,77.50
